Time;durP1;ratioP1;P1;durP2;ratioP2;P2;SDS_P1;SDS_P2;PMS_P1;PMS_P2;Temp;Humidity;BMP_temperature;BMP_pressure;BME280_temperature;BME280_humidity;BME280_pressure;Samples;Min_cycle;Max_cycle;Signal;HPM_P1;HPM_P2
2021/10/24 00:00:20;;;;;;;3.95;2.00;;;;;;;2.88;90.30;100358.22;2327631;69;20271;-80
2021/10/24 00:03:23;;;;;;;3.60;1.84;;;;;;;2.86;90.66;100353.81;2329298;69;20296;-80
2021/10/24 00:06:25;;;;;;;2.28;1.75;;;;;;;2.90;91.05;100356.59;2326652;69;20287;-80
2021/10/24 00:09:28;;;;;;;2.14;1.94;;;;;;;2.85;90.86;100349.50;2325752;69;20274;-80
2021/10/24 00:12:36;;;;;;;3.83;1.84;;;;;;;2.84;90.91;100350.31;2329933;69;20296;-80
2021/10/24 00:15:38;;;;;;;4.05;1.60;;;;;;;2.85;90.80;100352.06;2328397;69;20317;-80
2021/10/24 00:18:41;;;;;;;4.15;1.83;;;;;;;2.83;90.82;100346.00;2324427;69;20706;-81
2021/10/24 00:21:44;;;;;;;3.90;1.81;;;;;;;2.79;90.69;100350.13;2326166;69;20281;-80
2021/10/24 00:24:47;;;;;;;2.06;1.84;;;;;;;2.68;90.22;100348.78;2336561;69;20304;-80
2021/10/24 00:27:50;;;;;;;2.49;2.00;;;;;;;2.66;90.34;100345.28;2326559;69;20262;-81
2021/10/24 00:31:09;;;;;;;3.35;2.20;;;;;;;2.56;90.53;100341.47;2324780;69;20803;-80
2021/10/24 00:34:12;;;;;;;3.19;2.20;;;;;;;2.51;90.29;100340.38;2326501;69;20237;-81
2021/10/24 00:37:14;;;;;;;2.15;1.67;;;;;;;2.52;90.72;100342.16;2331698;69;20333;-80
2021/10/24 00:40:17;;;;;;;3.54;2.04;;;;;;;2.49;90.59;100331.75;2328709;69;20299;-80
2021/10/24 00:43:19;;;;;;;2.69;1.80;;;;;;;2.51;90.78;100337.81;2329707;69;20484;-80
2021/10/24 00:46:22;;;;;;;5.76;2.08;;;;;;;2.49;90.66;100330.88;2325481;69;20337;-80
2021/10/24 00:49:27;;;;;;;2.44;1.71;;;;;;;2.51;90.80;100327.56;2329179;69;20358;-80
2021/10/24 00:52:30;;;;;;;4.28;2.33;;;;;;;2.49;90.55;100326.63;2325637;69;20271;-80
2021/10/24 00:55:33;;;;;;;4.18;2.24;;;;;;;2.45;90.77;100318.75;2329796;69;20316;-80
2021/10/24 00:58:38;;;;;;;3.64;1.60;;;;;;;2.48;91.09;100319.75;2327637;69;20307;-81
2021/10/24 01:01:40;;;;;;;5.03;1.81;;;;;;;2.51;91.18;100329.25;2336508;66;36606;-80
2021/10/24 01:04:43;;;;;;;5.90;1.89;;;;;;;2.52;91.37;100316.53;2324718;69;20329;-81
2021/10/24 01:07:48;;;;;;;4.36;2.11;;;;;;;2.55;91.44;100318.34;2326307;69;20281;-80
2021/10/24 01:10:51;;;;;;;3.89;1.80;;;;;;;2.55;91.42;100315.78;2323565;69;20304;-80
2021/10/24 01:13:55;;;;;;;2.80;1.74;;;;;;;2.56;91.33;100313.28;2327537;69;20346;-80
2021/10/24 01:21:19;;;;;;;2.13;1.59;;;;;;;2.52;91.19;100307.97;2326477;69;20307;-81
2021/10/24 01:24:22;;;;;;;4.51;1.92;;;;;;;2.50;91.08;100295.06;2324741;69;20277;-81
2021/10/24 01:27:25;;;;;;;2.36;1.75;;;;;;;2.45;90.88;100298.25;2324484;69;20282;-81
2021/10/24 01:30:27;;;;;;;3.31;1.60;;;;;;;2.40;90.76;100298.94;2327812;66;24725;-80
2021/10/24 01:33:31;;;;;;;4.63;1.94;;;;;;;2.37;90.93;100286.00;2323961;69;20302;-80
2021/10/24 01:36:34;;;;;;;2.42;1.52;;;;;;;2.37;91.17;100280.88;2323616;69;20319;-80
2021/10/24 01:39:37;;;;;;;4.25;1.70;;;;;;;2.43;91.39;100278.56;2323564;69;20318;-80
2021/10/24 01:42:54;;;;;;;4.82;1.94;;;;;;;2.45;91.50;100281.19;2326451;69;20350;-81
2021/10/24 01:45:57;;;;;;;2.58;1.80;;;;;;;2.46;91.52;100270.13;2325991;69;20862;-81
2021/10/24 01:49:00;;;;;;;3.44;1.52;;;;;;;2.47;91.62;100268.44;2325536;69;20297;-80
2021/10/24 01:52:03;;;;;;;1.65;1.38;;;;;;;2.45;91.39;100262.38;2325526;69;20291;-80
2021/10/24 01:55:08;;;;;;;2.38;1.80;;;;;;;2.38;91.07;100261.25;2324773;69;20297;-80
2021/10/24 01:58:11;;;;;;;3.84;2.03;;;;;;;2.25;90.89;100257.28;2319115;69;20336;-80
2021/10/24 02:01:13;;;;;;;3.03;1.94;;;;;;;2.26;91.09;100251.34;2320915;67;25674;-80
2021/10/24 02:04:17;;;;;;;7.16;2.61;;;;;;;2.23;90.94;100252.91;2323558;69;20297;-80
2021/10/24 02:07:19;;;;;;;3.15;1.86;;;;;;;2.22;91.01;100253.72;2324342;69;20313;-80
2021/10/24 02:10:22;;;;;;;4.80;2.36;;;;;;;2.20;90.89;100252.78;2321689;69;20301;-80
2021/10/24 02:13:25;;;;;;;4.59;1.96;;;;;;;2.14;90.72;100250.81;2321971;69;20374;-80
2021/10/24 02:16:28;;;;;;;2.55;1.77;;;;;;;2.17;91.04;100257.78;2319193;66;27847;-80
2021/10/24 02:19:30;;;;;;;4.78;2.50;;;;;;;2.17;91.13;100247.53;2321686;69;20331;-80
2021/10/24 02:22:33;;;;;;;3.88;1.71;;;;;;;2.19;91.27;100251.91;2320994;69;20289;-80
2021/10/24 02:25:38;;;;;;;4.14;1.85;;;;;;;2.20;91.22;100252.78;2322766;69;20374;-80
2021/10/24 02:28:40;;;;;;;2.31;1.50;;;;;;;2.15;91.00;100246.56;2320924;69;20273;-80
2021/10/24 02:31:43;;;;;;;3.30;1.58;;;;;;;2.12;91.07;100247.31;2322057;69;20355;-80
2021/10/24 02:34:45;;;;;;;3.09;1.46;;;;;;;2.10;91.03;100244.69;2322100;69;20466;-80
2021/10/24 02:37:48;;;;;;;4.70;1.86;;;;;;;2.09;90.98;100255.75;2324533;69;20297;-80
2021/10/24 02:40:51;;;;;;;3.26;1.69;;;;;;;2.09;90.97;100250.63;2323341;69;20346;-80
2021/10/24 02:43:53;;;;;;;2.72;1.83;;;;;;;2.06;90.74;100249.63;2322742;69;20716;-80
2021/10/24 02:46:56;;;;;;;3.31;1.83;;;;;;;2.08;90.75;100248.88;2321587;66;21751;-80
2021/10/24 02:49:59;;;;;;;2.44;1.71;;;;;;;2.04;90.63;100243.56;2323622;69;21038;-79
2021/10/24 02:53:02;;;;;;;6.03;2.15;;;;;;;2.01;90.64;100240.88;2321834;69;20355;-80
2021/10/24 02:56:04;;;;;;;2.71;1.55;;;;;;;2.00;90.64;100236.56;2317349;69;20413;-80
2021/10/24 02:59:07;;;;;;;1.89;1.46;;;;;;;1.98;90.72;100244.19;2321354;69;21039;-80
2021/10/24 03:02:10;;;;;;;3.10;1.69;;;;;;;1.97;90.70;100244.09;2320575;66;27465;-80
2021/10/24 03:05:13;;;;;;;4.66;2.08;;;;;;;1.90;90.44;100235.28;2320794;69;20317;-80
2021/10/24 03:08:15;;;;;;;4.03;2.10;;;;;;;1.87;90.57;100235.16;2319888;69;20285;-80
2021/10/24 03:11:18;;;;;;;6.72;2.24;;;;;;;1.86;90.46;100227.41;2319887;69;20348;-80
2021/10/24 03:14:21;;;;;;;2.19;1.92;;;;;;;1.87;90.66;100231.72;2321148;69;20302;-80
2021/10/24 03:17:28;;;;;;;1.76;1.38;;;;;;;1.84;90.73;100229.03;2320823;66;22696;-80
2021/10/24 03:20:31;;;;;;;2.76;1.80;;;;;;;1.81;90.69;100232.31;2320920;69;20374;-80
2021/10/24 03:23:33;;;;;;;2.80;1.36;;;;;;;1.83;90.70;100233.25;2319685;69;20585;-80
2021/10/24 03:26:36;;;;;;;3.35;1.91;;;;;;;1.78;90.39;100229.59;2320206;69;20477;-80
2021/10/24 03:29:39;;;;;;;3.74;1.94;;;;;;;1.76;90.33;100229.53;2320989;69;20597;-80
2021/10/24 03:32:42;;;;;;;2.61;1.58;;;;;;;1.72;90.36;100232.78;2320057;66;28062;-80
2021/10/24 03:35:44;;;;;;;2.80;1.60;;;;;;;1.61;90.10;100227.97;2321647;69;20310;-80
2021/10/24 03:38:47;;;;;;;2.28;1.50;;;;;;;1.59;90.20;100229.59;2316436;69;20293;-80
2021/10/24 03:41:50;;;;;;;3.04;1.52;;;;;;;1.57;90.39;100231.22;2320556;69;20383;-80
2021/10/24 03:44:53;;;;;;;3.69;1.30;;;;;;;1.57;90.62;100232.09;2319338;69;20334;-80
2021/10/24 03:47:56;;;;;;;3.28;1.84;;;;;;;1.57;90.53;100234.66;2319168;66;30375;-80
2021/10/24 03:50:59;;;;;;;5.32;1.94;;;;;;;1.58;90.42;100238.97;2320837;69;20370;-80
2021/10/24 03:54:01;;;;;;;3.81;1.88;;;;;;;1.61;90.61;100236.53;2320161;69;20373;-79
2021/10/24 03:57:04;;;;;;;3.45;2.06;;;;;;;1.58;90.48;100244.06;2320428;69;20361;-80
2021/10/24 04:00:12;;;;;;;4.78;1.90;;;;;;;1.57;90.49;100238.91;2320220;69;20717;-80
2021/10/24 04:03:15;;;;;;;4.66;1.38;;;;;;;1.56;90.57;100237.16;2320778;69;22262;-80
2021/10/24 04:06:17;;;;;;;5.00;1.69;;;;;;;1.57;90.47;100238.91;2315912;69;20277;-80
2021/10/24 04:09:20;;;;;;;4.30;1.66;;;;;;;1.58;90.46;100244.06;2319881;69;20289;-80
2021/10/24 04:12:22;;;;;;;3.79;1.46;;;;;;;1.58;90.61;100243.19;2320103;69;20306;-80
2021/10/24 04:15:26;;;;;;;2.50;1.39;;;;;;;1.57;90.55;100246.56;2318885;69;20390;-80
2021/10/24 04:18:28;;;;;;;3.24;1.61;;;;;;;1.57;90.50;100239.78;2320700;69;20361;-80
2021/10/24 04:21:31;;;;;;;2.97;1.34;;;;;;;1.57;90.66;100238.91;2320289;69;20293;-80
2021/10/24 04:24:33;;;;;;;2.19;1.15;;;;;;;1.61;90.70;100236.53;2320274;69;20285;-80
2021/10/24 04:27:37;;;;;;;3.83;1.52;;;;;;;1.61;90.49;100231.41;2320398;69;20281;-80
2021/10/24 04:30:40;;;;;;;2.79;2.28;;;;;;;1.61;90.37;100227.97;2320264;66;25953;-80
2021/10/24 04:33:42;;;;;;;1.73;1.55;;;;;;;1.60;90.37;100223.66;2318922;69;20448;-80
2021/10/24 04:36:46;;;;;;;3.50;1.40;;;;;;;1.61;90.46;100220.31;2320140;69;20328;-80
2021/10/24 04:39:49;;;;;;;3.04;1.61;;;;;;;1.62;90.54;100227.19;2320609;69;20304;-80
2021/10/24 04:42:51;;;;;;;2.50;1.33;;;;;;;1.64;90.59;100221.34;2321535;69;20312;-80
2021/10/24 04:45:55;;;;;;;4.70;1.41;;;;;;;1.64;90.61;100216.22;2322214;66;25576;-79
2021/10/24 04:48:58;;;;;;;2.92;1.60;;;;;;;1.68;90.43;100223.22;2320956;69;20314;-80
2021/10/24 04:52:02;;;;;;;3.35;1.98;;;;;;;1.70;90.32;100218.16;2318259;69;20294;-80
2021/10/24 04:55:57;;;;;;;3.79;1.38;;;;;;;1.71;90.21;100215.66;2318275;69;20867;-80
2021/10/24 05:08:02;;;;;;;3.22;1.30;;;;;;;1.89;90.81;100212.16;2304907;69;20295;-80
2021/10/24 05:11:18;;;;;;;3.35;1.44;;;;;;;1.90;90.57;100207.09;2308295;69;20322;-79
2021/10/24 05:14:20;;;;;;;4.21;1.58;;;;;;;1.93;90.54;100207.22;2317945;69;20290;-80
2021/10/24 05:17:23;;;;;;;3.19;1.56;;;;;;;1.95;90.57;100197.06;2321200;66;22444;-79
2021/10/24 05:20:25;;;;;;;2.91;1.52;;;;;;;1.99;90.55;100194.72;2321830;69;20321;-80
2021/10/24 05:23:28;;;;;;;1.83;1.49;;;;;;;2.00;90.49;100195.59;2318893;69;20369;-80
2021/10/24 05:26:31;;;;;;;4.54;1.63;;;;;;;2.01;90.36;100197.34;2320534;69;20286;-80
2021/10/24 05:29:33;;;;;;;2.69;1.88;;;;;;;2.00;90.18;100198.16;2319866;69;20309;-79
2021/10/24 05:32:36;;;;;;;3.06;1.66;;;;;;;2.00;90.11;100199.03;2319501;66;23722;-80
2021/10/24 05:35:39;;;;;;;2.34;1.65;;;;;;;2.04;90.29;100194.91;2321249;69;20302;-80
2021/10/24 05:38:41;;;;;;;4.54;1.77;;;;;;;2.09;90.38;100194.28;2318836;69;20292;-80
2021/10/24 05:41:44;;;;;;;5.25;1.94;;;;;;;2.14;90.55;100189.31;2320952;69;20786;-79
2021/10/24 05:44:49;;;;;;;3.64;1.56;;;;;;;2.16;90.45;100195.41;2320410;69;20326;-80
2021/10/24 05:47:51;;;;;;;1.94;1.79;;;;;;;2.15;90.26;100190.19;2319804;66;21595;-80
2021/10/24 05:50:54;;;;;;;5.32;2.20;;;;;;;2.16;90.22;100192.84;2320142;69;20293;-80
2021/10/24 05:54:28;;;;;;;4.55;1.89;;;;;;;2.20;90.27;100189.59;2318468;69;21282;-80
2021/10/24 05:58:58;;;;;;;5.20;2.17;;;;;;;2.22;90.24;100190.53;2303804;69;20323;-79
2021/10/24 06:07:09;;;;;;;3.80;2.40;;;;;;;2.27;90.40;100183.03;2308148;69;20326;-80
2021/10/24 06:20:38;;;;;;;4.78;2.29;;;;;;;2.52;91.10;100177.25;2312433;69;20314;-79
2021/10/24 06:23:45;;;;;;;3.90;2.15;;;;;;;2.58;91.06;100178.34;2306539;69;20737;-79
2021/10/24 06:26:48;;;;;;;3.50;2.17;;;;;;;2.64;91.25;100172.59;2311569;69;20462;-79
2021/10/24 06:29:51;;;;;;;5.35;2.26;;;;;;;2.73;91.37;100178.97;2310539;69;20290;-80
2021/10/24 06:32:53;;;;;;;4.05;2.05;;;;;;;2.80;91.29;100179.19;2311984;66;28775;-79
2021/10/24 06:35:56;;;;;;;5.76;2.14;;;;;;;2.80;90.88;100190.31;2314977;69;20312;-80
2021/10/24 06:38:59;;;;;;;6.43;2.09;;;;;;;2.82;90.62;100183.56;2310985;69;20396;-79
2021/10/24 06:42:01;;;;;;;3.74;2.24;;;;;;;2.87;90.59;100186.31;2314503;69;20370;-80
2021/10/24 06:45:06;;;;;;;6.84;2.39;;;;;;;2.93;90.42;100181.44;2312282;69;20727;-80
2021/10/24 06:48:09;;;;;;;6.16;2.22;;;;;;;2.98;90.29;100175.66;2311441;69;23531;-79
2021/10/24 06:51:14;;;;;;;4.57;2.00;;;;;;;3.01;90.12;100175.75;2313268;69;20294;-79
2021/10/24 06:54:16;;;;;;;4.94;1.88;;;;;;;3.10;90.10;100172.69;2316201;69;20320;-80
2021/10/24 06:57:21;;;;;;;5.00;1.94;;;;;;;3.14;89.81;100176.25;2321623;69;20278;-80
2021/10/24 07:00:28;;;;;;;3.58;2.30;;;;;;;3.19;89.63;100182.41;2319719;67;28860;-79
2021/10/24 07:03:30;;;;;;;4.35;1.91;;;;;;;3.25;nan;100174.97;2313868;69;20217;-80
2021/10/24 07:06:33;;;;;;;7.36;1.96;;;;;;;3.32;89.38;100177.81;2323496;69;20250;-80
2021/10/24 07:09:36;;;;;;;3.01;2.11;;;;;;;3.39;89.29;100181.47;2327938;69;20312;-80
2021/10/24 07:12:44;;;;;;;5.11;1.98;;;;;;;3.45;89.15;100175.69;2322076;69;20254;-80
2021/10/24 07:15:46;;;;;;;6.36;2.08;;;;;;;3.52;89.06;100182.78;2329382;69;20262;-79
2021/10/24 07:18:49;;;;;;;6.10;2.30;;;;;;;3.62;89.14;100183.19;2323682;69;20402;-79
2021/10/24 07:40:51;;;;;;;4.84;2.00;;;;;;;4.57;88.52;100186.41;2311878;69;20810;-80
2021/10/24 07:44:01;;;;;;;3.51;2.25;;;;;;;4.81;88.04;100192.34;2326704;69;20323;-82
2021/10/24 07:47:16;;;;;;;4.28;2.41;;;;;;;5.07;87.56;100192.28;2337900;69;20482;-82
2021/10/24 07:50:19;;;;;;;3.17;1.85;;;;;;;5.34;86.78;100197.38;2327069;69;20238;-80
2021/10/24 07:53:26;;;;;;;4.76;2.10;;;;;;;5.62;85.96;100189.63;2336054;69;20270;-80
2021/10/24 07:56:29;;;;;;;2.44;1.66;;;;;;;5.85;84.47;100195.41;2330316;69;20292;-81
2021/10/24 07:59:32;;;;;;;4.97;3.24;;;;;;;6.11;82.83;100191.00;2341296;69;20266;-81
2021/10/24 08:02:35;;;;;;;3.20;2.05;;;;;;;6.35;82.22;100201.94;2324863;69;20233;-81
2021/10/24 08:05:37;;;;;;;4.95;1.88;;;;;;;6.63;81.54;100197.44;2335793;69;20277;-81
2021/10/24 08:08:40;;;;;;;4.25;1.44;;;;;;;6.89;80.38;100196.38;2340558;69;20293;-81
2021/10/24 08:11:43;;;;;;;3.17;1.59;;;;;;;7.19;79.89;100196.19;2328808;69;20237;-81
2021/10/24 08:14:46;;;;;;;3.40;1.92;;;;;;;7.46;78.04;100201.06;2343268;69;20373;-80
2021/10/24 08:17:49;;;;;;;2.06;1.55;;;;;;;7.76;76.83;100187.03;2329326;66;35873;-81
2021/10/24 08:20:52;;;;;;;1.63;1.41;;;;;;;8.06;76.24;100189.31;2344660;69;20301;-81
2021/10/24 08:23:54;;;;;;;2.92;1.46;;;;;;;8.38;74.70;100187.34;2331369;69;20334;-81
2021/10/24 08:26:57;;;;;;;2.96;1.69;;;;;;;8.65;73.86;100195.59;2332742;69;20254;-81
2021/10/24 08:30:03;;;;;;;3.76;1.71;;;;;;;8.84;72.64;100190.69;2327320;69;20253;-80
2021/10/24 08:33:06;;;;;;;5.11;1.40;;;;;;;9.07;71.59;100197.06;2331692;67;41197;-80
2021/10/24 08:36:08;;;;;;;2.59;1.67;;;;;;;9.29;70.98;100196.53;2332515;69;20281;-79
2021/10/24 08:39:11;;;;;;;3.72;1.85;;;;;;;9.52;70.00;100195.97;2340345;69;20113;-80
2021/10/24 08:42:16;;;;;;;3.60;1.64;;;;;;;9.74;69.82;100194.50;2330526;69;20142;-81
2021/10/24 08:45:19;;;;;;;4.06;1.79;;;;;;;9.90;68.44;100191.25;2340178;68;20283;-80
2021/10/24 08:48:22;;;;;;;3.67;1.38;;;;;;;10.06;67.29;100181.91;2342654;69;20254;-80
2021/10/24 09:04:52;;;;;;;2.61;1.55;;;;;;;10.91;64.94;100174.84;2312539;69;20122;-80
2021/10/24 09:07:56;;;;;;;4.25;1.60;;;;;;;11.05;64.02;100173.22;2336298;69;20106;-80
2021/10/24 09:10:59;;;;;;;5.66;1.80;;;;;;;11.18;64.14;100169.84;2327766;69;20211;-80
2021/10/24 09:14:02;;;;;;;3.11;1.95;;;;;;;11.31;64.00;100165.59;2323946;69;20097;-80
2021/10/24 09:17:06;;;;;;;3.78;2.13;;;;;;;11.39;63.89;100156.09;2339002;66;136767;-80
2021/10/24 09:20:09;;;;;;;4.13;1.90;;;;;;;11.59;63.63;100153.56;2351339;69;20105;-81
2021/10/24 09:23:14;;;;;;;2.92;1.85;;;;;;;11.69;62.89;100163.16;2337895;69;20130;-81
2021/10/24 09:26:25;;;;;;;4.18;2.25;;;;;;;11.78;61.81;100162.28;2328137;69;20150;-80
2021/10/24 09:29:30;;;;;;;5.80;2.79;;;;;;;11.81;62.55;100159.72;2332566;69;20120;-80
2021/10/24 09:33:04;;;;;;;3.26;2.20;;;;;;;11.86;61.95;100158.03;2331565;66;56391;-80
2021/10/24 09:36:08;;;;;;;4.59;2.36;;;;;;;11.94;61.40;100156.31;2328568;69;20093;-81
2021/10/24 09:39:44;;;;;;;3.41;2.39;;;;;;;12.15;61.61;100163.28;2324944;69;20125;-82
2021/10/24 09:43:32;;;;;;;6.29;1.99;;;;;;;12.30;61.03;100154.63;2336485;69;20129;-82
2021/10/24 09:47:06;;;;;;;3.00;2.04;;;;;;;12.34;60.65;100156.34;2339930;69;20132;-81
2021/10/24 09:51:25;;;;;;;4.25;2.22;;;;;;;12.46;60.52;100160.72;2342160;69;20199;-81
2021/10/24 09:55:15;;;;;;;2.28;1.38;;;;;;;12.61;59.88;100145.97;2331589;69;20214;-82
2021/10/24 09:59:35;;;;;;;3.08;1.75;;;;;;;12.71;60.40;100146.81;2340624;69;20282;-81
2021/10/24 10:03:45;;;;;;;3.94;1.64;;;;;;;12.83;60.34;100146.78;2263194;69;5769578;-81
2021/10/24 10:07:57;;;;;;;3.58;1.58;;;;;;;12.87;59.22;100145.91;2345214;69;20207;-82
2021/10/24 10:12:38;;;;;;;4.55;2.34;;;;;;;12.97;59.51;100149.38;2328654;68;20113;-82
2021/10/24 10:36:55;;;;;;;3.44;1.33;;;;;;;13.96;54.70;100142.91;2299708;69;20215;-82
2021/10/24 10:44:18;;;;;;;3.00;1.29;;;;;;;14.32;54.50;100134.84;2324702;69;20138;-81
2021/10/24 10:52:40;;;;;;;3.54;1.11;;;;;;;14.45;52.29;100138.25;2322050;73;20238;-82
2021/10/24 10:56:21;;;;;;;2.22;1.00;;;;;;;14.63;53.14;100134.63;2349381;69;20100;-82
2021/10/24 10:59:40;;;;;;;3.17;1.10;;;;;;;14.75;52.95;100126.69;2334847;69;20108;-82
2021/10/24 11:02:51;;;;;;;2.40;1.24;;;;;;;14.82;51.59;100129.19;2316544;68;1580332;-84
2021/10/24 11:05:55;;;;;;;2.55;1.19;;;;;;;14.91;51.72;100130.88;2324890;69;20352;-82
2021/10/24 11:09:37;;;;;;;12.54;1.85;;;;;;;15.03;52.08;100122.88;2326485;69;20148;-81
2021/10/24 11:12:42;;;;;;;1.29;0.86;;;;;;;15.15;52.46;100121.88;2328809;69;20168;-82
2021/10/24 11:16:37;;;;;;;3.30;1.29;;;;;;;15.25;51.33;100118.25;2322006;69;20206;-82
2021/10/24 11:20:25;;;;;;;7.34;1.35;;;;;;;15.31;51.74;100109.50;2334020;69;20165;-82
2021/10/24 11:24:05;;;;;;;4.38;1.25;;;;;;;15.46;52.03;100101.47;2319728;69;20177;-82
2021/10/24 11:28:10;;;;;;;11.23;1.42;;;;;;;15.53;51.78;100097.00;2313774;69;20122;-83
2021/10/24 11:32:45;;;;;;;3.45;0.80;;;;;;;15.58;51.91;100096.03;2310673;67;996363;-82
2021/10/24 11:36:37;;;;;;;4.30;0.80;;;;;;;15.53;51.87;100086.53;2290085;70;20178;-82
2021/10/24 11:39:40;;;;;;;2.21;1.10;;;;;;;15.43;51.58;100083.16;2299624;69;20164;-82
2021/10/24 11:43:08;;;;;;;5.15;1.01;;;;;;;15.44;51.99;100074.44;2327853;69;20185;-81
2021/10/24 11:46:11;;;;;;;1.42;0.86;;;;;;;15.37;50.80;100068.41;2314289;69;20215;-82
2021/10/24 11:49:14;;;;;;;2.14;0.73;;;;;;;15.39;51.02;100071.88;2315272;69;20216;-81
2021/10/24 11:52:27;;;;;;;3.10;0.82;;;;;;;15.42;50.88;100070.97;2319093;69;20198;-82
2021/10/24 11:55:29;;;;;;;1.54;0.90;;;;;;;15.55;50.46;100067.28;2329382;69;20097;-82
2021/10/24 11:58:49;;;;;;;2.26;0.85;;;;;;;15.71;50.20;100066.22;2329861;69;20261;-81
2021/10/24 12:01:52;;;;;;;1.71;0.77;;;;;;;15.89;49.78;100072.09;2337663;68;20138;-82
2021/10/24 12:04:55;;;;;;;2.71;1.01;;;;;;;15.93;48.46;100065.91;2330304;69;20116;-81
2021/10/24 12:07:58;;;;;;;4.47;1.05;;;;;;;16.07;48.44;100070.94;2324636;69;20147;-81
2021/10/24 12:11:01;;;;;;;1.88;0.93;;;;;;;16.14;48.38;100054.22;2329503;69;20182;-81
2021/10/24 12:14:03;;;;;;;1.33;0.88;;;;;;;16.19;47.33;100057.66;2323437;69;20221;-81
2021/10/24 12:17:14;;;;;;;1.77;0.90;;;;;;;16.23;47.79;100056.69;2322122;66;27716;-81
2021/10/24 12:20:23;;;;;;;4.35;0.80;;;;;;;16.22;47.04;100052.34;2323264;69;20612;-82
2021/10/24 12:23:27;;;;;;;;;;;;;;;16.17;47.05;100049.81;2325042;69;20207;-82
2021/10/24 12:26:33;;;;;;;3.83;0.98;;;;;;;16.18;47.33;100048.06;2324132;69;20105;-81
2021/10/24 12:29:37;;;;;;;5.06;1.04;;;;;;;16.19;47.49;100040.16;2327520;69;20105;-81
2021/10/24 12:33:27;;;;;;;;;;;;;;;;;;;;;
2021/10/24 12:36:46;;;;;;;2.33;0.93;;;;;;;16.15;47.75;100040.22;2334219;69;20152;-82
2021/10/24 12:39:48;;;;;;;4.41;1.23;;;;;;;16.21;47.71;100043.63;2328955;69;20105;-81
2021/10/24 12:43:11;;;;;;;1.21;1.00;;;;;;;16.20;47.06;100039.28;2329337;69;20159;-82
2021/10/24 12:57:43;;;;;;;2.61;0.82;;;;;;;16.36;48.06;100023.28;2288321;69;20236;-80
2021/10/24 13:00:46;;;;;;;2.22;0.90;;;;;;;16.28;46.58;100011.16;2318139;69;20149;-80
2021/10/24 13:03:50;;;;;;;2.13;0.96;;;;;;;16.11;46.60;100018.47;2320373;69;20134;-79
2021/10/24 15:01:44;;;;;;;6.06;0.90;;;;;;;14.00;55.57;99927.91;2305806;69;20113;-80
2021/10/24 15:25:42;;;;;;;2.15;0.50;;;;;;;13.63;58.17;99906.50;2343457;69;20109;-80
2021/10/24 15:30:14;;;;;;;2.55;0.81;;;;;;;13.53;57.36;99903.13;2324291;69;20208;-81
2021/10/24 15:34:00;;;;;;;1.91;0.73;;;;;;;13.24;58.96;99909.41;2314045;69;20188;-80
2021/10/24 15:37:03;;;;;;;3.89;0.60;;;;;;;12.91;61.70;99904.38;2327142;69;20153;-80
2021/10/24 15:40:07;;;;;;;2.01;0.50;;;;;;;12.61;64.43;99902.81;2323701;69;20144;-80
2021/10/24 15:43:10;;;;;;;3.56;0.51;;;;;;;12.30;66.24;99894.22;2322912;69;20170;-80
2021/10/24 15:46:13;;;;;;;2.63;0.80;;;;;;;12.02;67.41;99899.50;2317629;66;38878;-80
2021/10/24 15:49:17;;;;;;;4.85;0.60;;;;;;;11.81;67.52;99891.72;2324092;69;20148;-80
2021/10/24 15:52:20;;;;;;;3.41;0.60;;;;;;;11.67;67.61;99888.25;2327928;69;20452;-80
2021/10/24 15:55:29;;;;;;;1.40;0.50;;;;;;;11.45;69.60;99887.38;2341988;69;20169;-80
2021/10/24 15:58:33;;;;;;;2.65;1.09;;;;;;;11.22;70.71;99869.19;2337618;69;20150;-81
2021/10/24 16:01:36;;;;;;;0.90;0.60;;;;;;;11.02;71.39;99869.19;2344694;66;31578;-81
2021/10/24 16:04:39;;;;;;;1.14;0.80;;;;;;;10.84;72.22;99875.22;2353566;69;20175;-80
2021/10/24 16:07:42;;;;;;;2.03;0.56;;;;;;;10.65;72.95;99873.44;2337028;69;20100;-81
2021/10/24 16:10:45;;;;;;;2.09;0.61;;;;;;;10.48;73.61;99875.97;2343782;69;20097;-80
2021/10/24 16:13:48;;;;;;;0.76;0.50;;;;;;;10.34;74.12;99875.03;2324128;69;20136;-80
2021/10/24 16:34:03;;;;;;;0.65;0.50;;;;;;;9.38;77.46;99883.06;2315212;69;20152;-82
2021/10/24 16:37:06;;;;;;;2.20;0.70;;;;;;;9.20;78.14;99888.09;2341004;68;20109;-82
2021/10/24 16:40:11;;;;;;;2.36;0.61;;;;;;;9.06;78.43;99887.94;2329476;68;20136;-82
2021/10/24 16:43:14;;;;;;;1.77;0.57;;;;;;;8.93;78.96;99883.50;2327322;69;20101;-82
2021/10/24 16:46:17;;;;;;;1.81;0.54;;;;;;;8.78;79.59;99881.59;2334857;69;20164;-82
2021/10/24 16:49:20;;;;;;;0.69;0.55;;;;;;;8.64;80.10;99879.75;2333612;69;20112;-82
2021/10/24 16:52:23;;;;;;;0.52;0.51;;;;;;;8.55;80.34;99889.97;2347519;69;20316;-82
2021/10/24 16:55:29;;;;;;;6.95;0.71;;;;;;;8.44;80.55;99884.69;2336578;69;20242;-83
2021/10/24 16:58:35;;;;;;;2.04;0.50;;;;;;;8.30;80.87;99896.56;2328993;69;20249;-83
2021/10/24 17:01:38;;;;;;;1.13;0.54;;;;;;;8.21;81.23;99897.28;2329065;69;20279;-83
2021/10/24 17:08:40;;;;;;;2.31;0.77;;;;;;;8.00;81.47;99899.59;2325014;69;20133;-83
2021/10/24 17:11:43;;;;;;;0.96;0.66;;;;;;;7.94;81.35;99897.78;2340863;69;20105;-82
2021/10/24 17:14:52;;;;;;;;;;;;;;;7.81;81.67;99901.03;2341693;69;20260;-82
2021/10/24 17:17:55;;;;;;;0.81;0.52;;;;;;;7.70;81.92;99898.28;2336294;66;52008;-83
2021/10/24 17:20:58;;;;;;;1.41;0.82;;;;;;;7.62;82.05;99899.03;2325344;69;20254;-83
2021/10/24 17:24:01;;;;;;;2.74;0.60;;;;;;;7.51;82.22;99904.00;2337717;69;20254;-82
2021/10/24 17:27:05;;;;;;;1.92;0.59;;;;;;;7.42;82.28;99912.50;2333973;69;20272;-83
2021/10/24 17:30:09;;;;;;;0.73;0.54;;;;;;;7.34;82.46;99908.03;2348509;68;20254;-83
2021/10/24 17:33:13;;;;;;;2.17;0.50;;;;;;;7.26;82.81;99908.78;2359368;68;20268;-82
2021/10/24 17:36:16;;;;;;;2.00;0.68;;;;;;;7.18;83.22;99915.53;2351756;68;20305;-82
2021/10/24 17:39:19;;;;;;;1.66;0.60;;;;;;;7.11;83.45;99910.22;2332509;69;20256;-82
2021/10/24 17:42:22;;;;;;;0.81;0.60;;;;;;;7.05;83.88;99912.69;2336000;69;20331;-82
2021/10/24 17:45:25;;;;;;;2.01;0.70;;;;;;;6.96;84.09;99913.38;2340718;69;20271;-83
2021/10/24 17:48:31;;;;;;;1.34;0.68;;;;;;;6.90;84.40;99915.88;2334081;69;20291;-82
2021/10/24 17:51:35;;;;;;;1.19;0.68;;;;;;;6.84;84.51;99918.34;2342068;69;20474;-81
2021/10/24 18:00:13;;;;;;;1.54;0.80;;;;;;;6.72;85.06;99915.53;2331024;68;20398;-83
2021/10/24 18:09:16;;;;;;;1.63;0.90;;;;;;;6.55;85.67;99920.34;2325850;68;20299;-83
2021/10/24 18:13:40;;;;;;;1.36;0.80;;;;;;;6.48;86.08;99908.16;2323291;69;20352;-82
2021/10/24 18:17:46;;;;;;;2.01;0.70;;;;;;;6.43;86.20;99905.47;2358172;69;20242;-82
2021/10/24 18:21:51;;;;;;;1.35;0.96;;;;;;;6.35;85.67;99913.06;2330858;69;20241;-82
2021/10/24 18:34:58;;;;;;;1.58;1.17;;;;;;;6.09;84.76;99910.75;2326814;69;20369;-82
2021/10/24 20:39:37;;;;;;;7.06;3.74;;;;;;;4.05;87.39;99884.06;2297610;69;20004;-81
2021/10/24 20:47:56;;;;;;;6.50;3.99;;;;;;;3.96;87.55;99893.19;2320725;69;20327;-82
2021/10/24 20:52:34;;;;;;;5.85;3.84;;;;;;;3.88;87.46;99886.13;2315429;69;20395;-81
2021/10/24 20:56:07;;;;;;;6.19;4.36;;;;;;;3.80;87.70;99879.03;2316958;69;20236;-82
2021/10/24 20:59:12;;;;;;;6.32;4.65;;;;;;;3.75;87.71;99884.00;2311196;69;20312;-81
2021/10/24 21:02:14;;;;;;;8.64;4.53;;;;;;;3.74;87.66;99878.81;2313618;66;26621;-81
2021/10/24 22:19:00;;;;;;;9.85;5.57;;;;;;;2.62;87.22;99887.09;2285119;73;20346;31
2021/10/24 22:22:03;;;;;;;8.67;6.13;;;;;;;2.59;87.47;99881.88;2292744;69;20249;-82
2021/10/24 22:25:07;;;;;;;8.82;5.65;;;;;;;2.54;87.64;99880.84;2327252;69;20349;-81
2021/10/24 22:28:11;;;;;;;7.95;5.34;;;;;;;2.52;87.76;99885.94;2332567;69;20374;-81
2021/10/24 22:31:14;;;;;;;10.76;6.39;;;;;;;2.49;87.70;99890.03;2315486;69;20302;-82
2021/10/24 22:34:17;;;;;;;10.09;6.04;;;;;;;2.45;87.69;99888.19;2329008;69;20241;-82
2021/10/24 22:37:21;;;;;;;8.36;5.50;;;;;;;2.39;87.68;99892.28;2320698;69;20344;-81
2021/10/24 22:40:24;;;;;;;11.85;5.80;;;;;;;2.39;87.84;99884.59;2319375;69;20335;-82
2021/10/24 22:43:27;;;;;;;7.45;5.28;;;;;;;2.39;87.77;99887.16;2323738;69;20349;-82
2021/10/24 22:46:29;;;;;;;8.19;5.53;;;;;;;2.39;87.75;99883.72;2316234;69;20249;-82
2021/10/24 22:49:53;;;;;;;8.20;5.11;;;;;;;2.36;87.65;99883.63;2327926;69;20253;-82
2021/10/24 22:52:56;;;;;;;7.94;4.84;;;;;;;2.31;87.55;99883.44;2317983;69;20364;-82
2021/10/24 22:56:03;;;;;;;7.60;5.19;;;;;;;2.28;87.71;99885.03;2308159;69;20249;-82